createdAt,value
2019-02-26T00:00:46.995Z,25.13
2019-02-26T00:03:19.378Z,20.17
2019-02-26T00:05:47.848Z,27.17
2019-02-26T00:08:19.414Z,21.63
2019-02-26T00:10:45.401Z,23.83
2019-02-26T00:13:13.847Z,26.70
2019-02-26T00:15:43.239Z,26.97
2019-02-26T00:18:13.978Z,22.77
2019-02-26T00:20:42.591Z,22.00
2019-02-26T00:23:11.019Z,25.50
2019-02-26T00:25:39.750Z,26.77
2019-02-26T00:28:08.183Z,20.13
2019-02-26T00:30:38.010Z,23.97
2019-02-26T00:33:06.805Z,20.93
2019-02-26T00:35:35.215Z,24.07
2019-02-26T00:38:03.661Z,22.07
2019-02-26T00:40:34.351Z,20.90
2019-02-26T00:43:04.310Z,20.73
2019-02-26T00:45:34.148Z,21.13
2019-02-26T00:48:02.604Z,22.57
2019-02-26T00:50:32.767Z,24.13
2019-02-26T00:53:01.768Z,19.97
2019-02-26T00:55:32.223Z,21.30
2019-02-26T00:58:03.376Z,20.40
2019-02-26T01:00:33.213Z,21.10
2019-02-26T01:03:04.028Z,21.17
2019-02-26T01:05:33.761Z,22.50
2019-02-26T01:08:02.562Z,20.87
2019-02-26T01:10:31.075Z,19.60
2019-02-26T01:13:01.411Z,20.17
2019-02-26T01:15:29.740Z,21.80
2019-02-26T01:17:59.374Z,17.60
2019-02-26T01:20:30.205Z,19.70
2019-02-26T01:22:59.070Z,23.60
2019-02-26T01:25:27.503Z,19.00
2019-02-26T01:27:57.949Z,23.87
2019-02-26T01:30:27.192Z,20.90
2019-02-26T01:32:58.159Z,20.07
2019-02-26T01:35:28.227Z,21.40
2019-02-26T01:37:59.939Z,19.53
2019-02-26T01:40:26.807Z,23.33
2019-02-26T01:42:57.952Z,22.17
2019-02-26T01:45:27.229Z,19.73
2019-02-26T01:47:55.603Z,22.20
2019-02-26T01:50:24.061Z,20.33
2019-02-26T01:52:54.558Z,19.13
2019-02-26T01:55:23.572Z,20.53
2019-02-26T01:57:52.878Z,21.73
2019-02-26T02:00:21.292Z,20.50
2019-02-26T02:02:49.718Z,26.77
2019-02-26T02:05:19.655Z,20.23
2019-02-26T02:07:49.566Z,21.23
2019-02-26T02:10:18.470Z,23.67
2019-02-26T02:12:46.971Z,20.10
2019-02-26T02:15:20.473Z,21.30
2019-02-26T02:17:46.353Z,22.27
2019-02-26T02:20:19.530Z,17.37
2019-02-26T02:22:47.536Z,19.33
2019-02-26T02:25:16.040Z,19.87
2019-02-26T02:27:47.624Z,20.90
2019-02-26T02:30:23.092Z,20.00
2019-02-26T02:32:54.052Z,21.73
2019-02-26T02:35:19.300Z,17.63
2019-02-26T02:37:48.240Z,19.40
2019-02-26T02:40:16.752Z,20.70
2019-02-26T02:42:48.874Z,20.10
2019-02-26T02:45:19.646Z,19.73
2019-02-26T02:47:45.518Z,20.77
2019-02-26T02:50:17.873Z,19.47
2019-02-26T02:52:44.964Z,22.43
2019-02-26T02:55:18.596Z,21.10
2019-02-26T02:57:48.691Z,20.50
2019-02-26T03:00:17.088Z,19.03
2019-02-26T03:02:46.439Z,23.67
2019-02-26T03:05:15.744Z,20.23
2019-02-26T03:07:46.062Z,20.67
2019-02-26T03:10:15.330Z,21.63
2019-02-26T03:12:47.691Z,23.57
2019-02-26T03:15:15.347Z,20.47
2019-02-26T03:17:43.969Z,22.30
2019-02-26T03:20:14.500Z,22.27
2019-02-26T03:22:46.643Z,20.50
2019-02-26T03:25:22.986Z,20.50
2019-02-26T03:27:49.329Z,22.37
2019-02-26T03:30:26.121Z,21.00
2019-02-26T03:32:52.097Z,21.77
2019-02-26T03:35:23.105Z,21.87
2019-02-26T03:37:54.023Z,19.87
2019-02-26T03:40:21.586Z,20.13
2019-02-26T03:42:50.521Z,19.37
2019-02-26T03:45:23.618Z,18.87
2019-02-26T03:47:49.196Z,18.60
2019-02-26T03:50:17.657Z,18.23
2019-02-26T03:52:46.161Z,18.47
2019-02-26T03:55:18.301Z,19.87
2019-02-26T03:57:47.396Z,25.40
2019-02-26T04:00:20.514Z,16.27
2019-02-26T04:02:51.505Z,22.67
2019-02-26T04:05:19.630Z,20.47
2019-02-26T04:07:49.905Z,23.43
2019-02-26T04:10:18.226Z,22.37
2019-02-26T04:12:49.018Z,22.47
2019-02-26T04:15:18.221Z,25.17
2019-02-26T04:17:46.745Z,23.57
2019-02-26T04:20:16.307Z,21.77
2019-02-26T04:22:48.941Z,23.20
2019-02-26T04:25:27.645Z,21.23
2019-02-26T04:28:02.459Z,24.00
2019-02-26T04:30:39.734Z,19.13
2019-02-26T04:33:30.139Z,19.63
2019-02-26T04:36:11.879Z,23.10
2019-02-26T04:38:50.733Z,19.17
2019-02-26T04:41:19.485Z,23.47
2019-02-26T04:44:09.157Z,22.10
2019-02-26T04:46:40.630Z,21.40
2019-02-26T04:49:09.073Z,22.00
2019-02-26T04:51:41.517Z,21.30
2019-02-26T04:54:07.705Z,23.17
2019-02-26T04:56:39.380Z,22.90
2019-02-26T04:59:09.280Z,22.17
2019-02-26T05:01:36.572Z,22.27
2019-02-26T05:04:05.064Z,24.37
2019-02-26T05:06:33.511Z,21.67
2019-02-26T05:09:02.782Z,22.80
2019-02-26T05:11:35.793Z,24.17
2019-02-26T05:14:02.356Z,21.00
2019-02-26T05:16:32.638Z,19.17
2019-02-26T05:19:00.929Z,19.47
2019-02-26T05:21:30.417Z,22.30
2019-02-26T05:24:00.165Z,18.67
2019-02-26T05:26:30.181Z,23.13
2019-02-26T05:28:59.048Z,20.43
2019-02-26T05:31:29.765Z,22.47
2019-02-26T05:33:59.932Z,23.30
2019-02-26T05:36:28.401Z,20.90
2019-02-26T05:38:59.580Z,22.40
2019-02-26T05:41:27.757Z,23.60
2019-02-26T05:43:58.390Z,22.93
2019-02-26T05:46:28.923Z,21.20
2019-02-26T05:48:56.626Z,22.47
2019-02-26T05:51:27.372Z,29.43
2019-02-26T05:53:55.349Z,23.50
2019-02-26T05:56:23.865Z,29.13
2019-02-26T05:58:53.042Z,26.43
2019-02-26T06:01:22.489Z,22.93
2019-02-26T06:03:51.987Z,24.97
2019-02-26T06:06:20.680Z,26.70
2019-02-26T06:08:49.106Z,22.37
2019-02-26T06:11:17.569Z,21.00
2019-02-26T06:13:46.037Z,25.10
2019-02-26T06:16:14.464Z,21.70
2019-02-26T06:18:44.022Z,22.40
2019-02-26T06:21:15.658Z,22.87
2019-02-26T06:23:45.772Z,21.97
2019-02-26T06:26:17.488Z,22.40
2019-02-26T06:28:48.043Z,23.70
2019-02-26T06:31:17.418Z,22.27
2019-02-26T06:33:47.756Z,24.20
2019-02-26T06:36:18.542Z,29.37
2019-02-26T06:38:49.716Z,32.80
2019-02-26T06:41:17.356Z,26.47
2019-02-26T06:43:48.561Z,28.17
2019-02-26T06:46:16.167Z,22.30
2019-02-26T06:48:47.639Z,25.50
2019-02-26T06:51:16.070Z,35.37
2019-02-26T06:53:47.089Z,29.67
2019-02-26T06:56:16.015Z,24.00
2019-02-26T06:58:46.950Z,22.17
2019-02-26T07:01:16.663Z,24.47
2019-02-26T07:03:45.470Z,25.37
2019-02-26T07:06:13.934Z,19.87
2019-02-26T07:08:44.387Z,24.70
2019-02-26T07:11:12.509Z,24.63
2019-02-26T07:13:43.403Z,21.67
2019-02-26T07:16:11.133Z,22.27
2019-02-26T07:18:39.872Z,21.73
2019-02-26T07:21:08.318Z,22.47
2019-02-26T07:23:38.212Z,24.97
2019-02-26T07:26:06.934Z,21.77
2019-02-26T07:28:35.372Z,21.67
2019-02-26T07:31:05.491Z,24.70
2019-02-26T07:33:35.118Z,20.43
2019-02-26T07:36:04.268Z,22.90
2019-02-26T07:38:40.837Z,21.00
2019-02-26T07:41:03.792Z,22.33
2019-02-26T07:43:36.628Z,21.83
2019-02-26T07:46:03.223Z,23.13
2019-02-26T07:48:33.570Z,23.23
2019-02-26T07:51:01.820Z,19.60
2019-02-26T07:53:30.254Z,22.97
2019-02-26T07:55:59.622Z,25.30
2019-02-26T07:58:30.910Z,20.50
2019-02-26T08:00:58.994Z,24.10
2019-02-26T08:03:29.284Z,20.20
2019-02-26T08:05:59.283Z,24.80
2019-02-26T08:08:27.742Z,22.40
2019-02-26T08:10:56.197Z,22.23
2019-02-26T08:13:28.465Z,22.27
2019-02-26T08:15:55.951Z,29.00
2019-02-26T08:18:25.008Z,23.73
2019-02-26T08:20:56.871Z,23.23
2019-02-26T08:23:24.538Z,24.27
2019-02-26T08:25:55.660Z,22.30
2019-02-26T08:28:27.272Z,20.63
2019-02-26T08:30:57.265Z,25.37
2019-02-26T08:33:26.110Z,21.33
2019-02-26T08:35:57.285Z,23.37
2019-02-26T08:38:29.378Z,27.63
2019-02-26T08:40:55.936Z,20.63
2019-02-26T08:43:24.371Z,24.00
2019-02-26T08:45:52.825Z,22.50
2019-02-26T08:48:22.336Z,23.73
2019-02-26T08:50:51.492Z,22.57
2019-02-26T08:53:21.797Z,24.70
2019-02-26T08:55:51.556Z,23.13
2019-02-26T08:58:20.594Z,27.80
2019-02-26T09:00:49.109Z,29.07
2019-02-26T09:03:18.601Z,27.73
2019-02-26T09:05:49.419Z,22.97
2019-02-26T09:08:18.182Z,21.60
2019-02-26T09:10:48.585Z,22.37
2019-02-26T09:13:18.737Z,25.87
2019-02-26T09:15:47.156Z,23.63
2019-02-26T09:18:15.655Z,24.27
2019-02-26T09:20:44.126Z,24.93
2019-02-26T09:23:16.326Z,24.27
2019-02-26T09:25:42.812Z,26.87
2019-02-26T09:28:11.246Z,24.47
2019-02-26T09:30:40.840Z,25.70
2019-02-26T09:33:11.071Z,26.33
2019-02-26T09:35:39.815Z,22.30
2019-02-26T09:38:08.274Z,27.20
2019-02-26T09:40:36.779Z,25.10
2019-02-26T09:43:06.121Z,30.73
2019-02-26T09:45:34.837Z,25.60
2019-02-26T09:48:03.347Z,26.40
2019-02-26T09:50:32.044Z,27.43
2019-02-26T09:53:00.489Z,28.43
2019-02-26T09:55:29.295Z,27.10
2019-02-26T09:57:58.105Z,30.73
2019-02-26T10:00:29.348Z,27.30
2019-02-26T10:02:56.838Z,24.90
2019-02-26T10:05:25.616Z,26.93
2019-02-26T10:07:56.854Z,28.87
2019-02-26T10:10:27.583Z,25.47
2019-02-26T10:12:57.320Z,28.63
2019-02-26T10:15:25.203Z,27.67
2019-02-26T10:17:56.205Z,31.03
2019-02-26T10:20:31.021Z,34.33
2019-02-26T10:23:00.627Z,28.10
2019-02-26T10:25:31.957Z,31.93
2019-02-26T10:28:03.047Z,29.07
2019-02-26T10:30:33.296Z,32.27
2019-02-26T10:33:02.769Z,32.23
2019-02-26T10:35:35.637Z,32.00
2019-02-26T10:38:05.180Z,32.27
2019-02-26T10:40:35.599Z,33.07
2019-02-26T10:43:07.056Z,33.13
2019-02-26T10:45:38.582Z,31.57
2019-02-26T10:48:05.790Z,31.53
2019-02-26T10:50:34.225Z,35.40
2019-02-26T10:53:10.329Z,38.17
2019-02-26T10:55:39.303Z,32.50
2019-02-26T10:58:09.991Z,31.47
2019-02-26T11:00:38.004Z,31.20
2019-02-26T11:03:08.938Z,32.97
2019-02-26T11:05:39.550Z,35.13
2019-02-26T11:08:09.262Z,37.23
2019-02-26T11:10:41.402Z,34.47
2019-02-26T11:13:08.084Z,34.17
2019-02-26T11:15:36.645Z,34.47
2019-02-26T11:18:05.103Z,30.87
2019-02-26T11:20:34.376Z,34.10
2019-02-26T11:23:05.899Z,33.43
2019-02-26T11:25:33.255Z,31.20
2019-02-26T11:28:02.534Z,33.03
2019-02-26T11:30:32.310Z,29.70
2019-02-26T11:33:10.121Z,30.67
2019-02-26T11:35:36.678Z,28.60
2019-02-26T11:38:05.205Z,29.10
2019-02-26T11:40:34.230Z,29.40
2019-02-26T11:43:11.166Z,25.63
2019-02-26T11:45:34.697Z,26.30
2019-02-26T11:48:04.336Z,27.23
2019-02-26T11:50:33.363Z,28.30
2019-02-26T11:53:01.798Z,26.97
2019-02-26T11:55:32.419Z,26.23
2019-02-26T11:58:00.441Z,26.93
2019-02-26T12:00:38.832Z,28.30
2019-02-26T12:03:06.244Z,26.43
2019-02-26T12:05:38.293Z,28.37
2019-02-26T12:08:06.512Z,25.70
2019-02-26T12:10:37.219Z,29.30
2019-02-26T12:13:05.222Z,25.10
2019-02-26T12:15:36.283Z,25.33
2019-02-26T12:18:04.200Z,27.87
2019-02-26T12:20:32.834Z,26.07
2019-02-26T12:23:01.836Z,23.33
2019-02-26T12:25:30.295Z,27.67
2019-02-26T12:28:00.234Z,24.80
2019-02-26T12:30:28.914Z,27.17
2019-02-26T12:32:57.381Z,31.10
2019-02-26T12:35:25.847Z,26.63
2019-02-26T12:37:56.640Z,28.53
2019-02-26T12:40:25.490Z,26.30
2019-02-26T12:42:54.328Z,27.43
2019-02-26T12:45:26.108Z,24.63
2019-02-26T12:47:55.293Z,23.83
2019-02-26T12:50:29.038Z,23.27
2019-02-26T12:52:57.026Z,23.30
2019-02-26T12:55:29.639Z,21.00
2019-02-26T12:57:59.196Z,23.47
2019-02-26T13:00:26.482Z,24.80
2019-02-26T13:02:58.758Z,23.03
2019-02-26T13:05:27.403Z,22.90
2019-02-26T13:07:55.839Z,16.17
2019-02-26T13:10:25.944Z,20.67
2019-02-26T13:12:59.323Z,20.03
2019-02-26T13:15:24.674Z,20.03
2019-02-26T13:17:54.605Z,19.63
2019-02-26T13:20:25.060Z,18.80
2019-02-26T13:23:00.511Z,20.87
2019-02-26T13:25:26.769Z,30.80
2019-02-26T13:27:54.047Z,17.70
2019-02-26T13:30:26.522Z,18.33
2019-02-26T13:32:58.029Z,20.17
2019-02-26T13:35:25.351Z,23.17
2019-02-26T13:38:02.550Z,19.43
2019-02-26T13:40:38.288Z,20.43
2019-02-26T13:45:30.172Z,23.37
2019-02-26T13:48:01.277Z,22.77
2019-02-26T13:50:35.669Z,23.77
2019-02-26T13:53:05.514Z,22.67
2019-02-26T13:55:33.989Z,23.47
2019-02-26T13:58:11.433Z,23.73
2019-02-26T14:00:32.688Z,22.40
2019-02-26T14:03:01.121Z,24.53
2019-02-26T14:05:37.910Z,25.27
2019-02-26T14:08:01.218Z,31.13
2019-02-26T14:10:29.661Z,22.37
2019-02-26T14:12:58.096Z,23.93
2019-02-26T14:15:28.666Z,22.00
2019-02-26T14:17:57.208Z,27.60
2019-02-26T14:20:25.694Z,33.63
2019-02-26T14:22:54.187Z,26.03
2019-02-26T14:25:22.650Z,23.83
2019-02-26T14:27:51.067Z,28.00
2019-02-26T14:30:21.799Z,25.53
2019-02-26T14:32:50.530Z,24.10
2019-02-26T14:35:18.944Z,24.83
2019-02-26T14:37:47.440Z,29.30
2019-02-26T14:40:21.047Z,29.60
2019-02-26T14:42:49.918Z,22.83
2019-02-26T14:45:24.064Z,24.93
2019-02-26T14:47:52.506Z,23.40
2019-02-26T14:50:21.993Z,26.50
2019-02-26T14:52:50.501Z,25.87
2019-02-26T14:55:19.091Z,27.80
2019-02-26T14:57:47.517Z,27.53
2019-02-26T15:00:27.431Z,23.53
2019-02-26T15:02:56.396Z,27.53
2019-02-26T15:05:25.015Z,27.70
2019-02-26T15:07:53.498Z,28.47
2019-02-26T15:10:21.981Z,30.67
2019-02-26T15:12:50.557Z,29.27
2019-02-26T15:15:19.663Z,24.10
2019-02-26T15:17:48.097Z,25.80
2019-02-26T15:20:21.647Z,24.43
2019-02-26T15:22:50.114Z,23.83
2019-02-26T15:25:23.554Z,21.53
2019-02-26T15:27:51.989Z,23.63
2019-02-26T15:30:21.866Z,23.60
2019-02-26T15:32:50.425Z,22.80
2019-02-26T15:35:19.080Z,25.03
2019-02-26T15:37:47.536Z,25.43
2019-02-26T15:40:20.740Z,22.23
2019-02-26T15:42:52.311Z,30.00
2019-02-26T15:45:24.433Z,23.93
2019-02-26T15:47:53.113Z,25.73
2019-02-26T15:50:22.412Z,19.50
2019-02-26T15:52:53.020Z,20.47
2019-02-26T15:55:23.203Z,18.80
2019-02-26T15:57:51.730Z,19.77
2019-02-26T16:00:23.515Z,22.17
2019-02-26T16:02:53.280Z,19.67
2019-02-26T16:05:24.669Z,17.93
2019-02-26T16:07:53.099Z,23.70
2019-02-26T16:10:22.739Z,23.13
2019-02-26T16:12:51.424Z,20.67
2019-02-26T16:15:19.904Z,18.80
2019-02-26T16:17:48.355Z,18.83
2019-02-26T16:20:22.837Z,23.90
2019-02-26T16:22:54.992Z,22.40
2019-02-26T16:25:25.046Z,22.43
2019-02-26T16:27:54.415Z,21.43
2019-02-26T16:30:24.856Z,23.47
2019-02-26T16:32:53.929Z,22.17
2019-02-26T16:35:24.654Z,20.07
2019-02-26T16:37:52.606Z,22.23
2019-02-26T16:40:21.098Z,22.87
2019-02-26T16:42:49.740Z,21.00
2019-02-26T16:45:23.605Z,22.60
2019-02-26T16:47:52.027Z,25.27
2019-02-26T16:50:26.524Z,19.83
2019-02-26T16:52:55.033Z,21.50
2019-02-26T16:55:23.525Z,19.97
2019-02-26T16:57:52.025Z,21.00
2019-02-26T17:00:28.605Z,22.33
2019-02-26T17:02:59.824Z,25.67
2019-02-26T17:05:27.375Z,24.27
2019-02-26T17:07:56.384Z,26.80
2019-02-26T17:10:29.054Z,22.73
2019-02-26T17:12:56.600Z,21.53
2019-02-26T17:15:38.003Z,27.00
2019-02-26T17:18:09.604Z,23.33
2019-02-26T17:20:36.864Z,19.60
2019-02-26T17:23:05.340Z,25.30
2019-02-26T17:25:33.798Z,20.53
2019-02-26T17:28:02.228Z,23.10
2019-02-26T17:30:30.689Z,24.13
2019-02-26T17:32:59.139Z,27.17
2019-02-26T17:35:29.523Z,25.87
2019-02-26T17:37:57.828Z,25.67
2019-02-26T17:40:29.021Z,24.53
2019-02-26T17:42:57.938Z,22.67
2019-02-26T17:45:32.018Z,25.53
2019-02-26T17:48:00.445Z,21.40
2019-02-26T17:50:34.999Z,24.57
2019-02-26T17:53:03.559Z,21.20
2019-02-26T17:55:32.061Z,22.83
2019-02-26T17:58:00.834Z,30.47
2019-02-26T18:00:31.242Z,27.27
2019-02-26T18:02:59.844Z,31.40
2019-02-26T18:05:28.376Z,31.13
2019-02-26T18:07:56.941Z,30.40
2019-02-26T18:10:27.235Z,29.87
2019-02-26T18:12:56.124Z,33.03
2019-02-26T18:15:24.988Z,33.70
2019-02-26T18:17:53.446Z,36.97
2019-02-26T18:20:23.215Z,32.03
2019-02-26T18:22:51.678Z,31.40
2019-02-26T18:25:21.798Z,35.83
2019-02-26T18:27:50.363Z,32.40
2019-02-26T18:30:23.768Z,27.50
2019-02-26T18:32:55.646Z,27.90
2019-02-26T18:35:22.929Z,36.70
2019-02-26T18:37:51.547Z,28.47
2019-02-26T18:40:20.472Z,27.10
2019-02-26T18:42:49.264Z,24.67
2019-02-26T18:45:29.162Z,28.03
2019-02-26T18:47:58.149Z,28.80
2019-02-26T18:50:28.710Z,26.53
2019-02-26T18:52:58.275Z,27.00
2019-02-26T18:55:28.346Z,26.77
2019-02-26T18:57:57.508Z,26.83
2019-02-26T19:00:28.381Z,29.57
2019-02-26T19:02:56.799Z,26.83
2019-02-26T19:05:25.256Z,22.97
2019-02-26T19:07:53.895Z,27.43
2019-02-26T19:10:23.085Z,23.73
2019-02-26T19:12:51.513Z,33.57
2019-02-26T19:15:22.991Z,23.63
2019-02-26T19:17:53.637Z,23.53
2019-02-26T19:20:27.910Z,25.67
2019-02-26T19:22:58.541Z,23.60
2019-02-26T19:25:26.498Z,25.07
2019-02-26T19:27:54.974Z,29.27
2019-02-26T19:30:24.291Z,27.90
2019-02-26T19:32:52.694Z,26.40
2019-02-26T19:35:21.158Z,28.03
2019-02-26T19:37:55.114Z,26.07
2019-02-26T19:40:30.398Z,23.77
2019-02-26T19:42:59.624Z,26.70
2019-02-26T19:45:28.027Z,29.23
2019-02-26T19:47:56.612Z,25.37
2019-02-26T19:50:25.152Z,25.00
2019-02-26T19:52:56.997Z,23.67
2019-02-26T19:55:26.833Z,27.60
2019-02-26T19:57:55.341Z,26.13
2019-02-26T20:00:23.814Z,25.43
2019-02-26T20:02:52.396Z,25.67
2019-02-26T20:05:20.797Z,29.23
2019-02-26T20:07:49.482Z,25.27
2019-02-26T20:10:18.867Z,25.67
2019-02-26T20:12:47.318Z,29.80
2019-02-26T20:15:15.905Z,32.77
2019-02-26T20:17:44.393Z,26.47
2019-02-26T20:20:16.789Z,30.63
2019-02-26T20:22:45.581Z,33.07
2019-02-26T20:25:19.029Z,35.50
2019-02-26T20:27:47.607Z,29.73
2019-02-26T20:30:22.908Z,29.23
2019-02-26T20:32:51.950Z,31.20
2019-02-26T20:35:20.360Z,28.07
2019-02-26T20:37:48.808Z,31.73
2019-02-26T20:40:25.059Z,26.27
2019-02-26T20:42:53.486Z,26.67
2019-02-26T20:45:22.894Z,35.37
2019-02-26T20:47:51.308Z,27.70
2019-02-26T20:50:22.434Z,33.50
2019-02-26T20:52:50.850Z,25.63
2019-02-26T20:55:24.710Z,35.97
2019-02-26T20:57:53.273Z,31.87
2019-02-26T21:00:24.901Z,27.63
2019-02-26T21:02:51.977Z,31.23
2019-02-26T21:05:20.536Z,34.97
2019-02-26T21:07:49.867Z,29.03
2019-02-26T21:10:19.932Z,29.10
2019-02-26T21:12:51.479Z,25.37
2019-02-26T21:15:21.881Z,31.17
2019-02-26T21:18:01.353Z,25.67
2019-02-26T21:20:29.817Z,23.80
2019-02-26T21:22:59.046Z,30.47
2019-02-26T21:25:29.044Z,25.87
2019-02-26T21:28:00.711Z,25.70
2019-02-26T21:30:29.312Z,28.63
2019-02-26T21:32:58.652Z,20.77
2019-02-26T21:35:28.917Z,27.97
2019-02-26T21:37:57.434Z,29.00
2019-02-26T21:40:25.945Z,26.50
2019-02-26T21:42:54.323Z,36.97
2019-02-26T21:45:22.768Z,25.93
2019-02-26T21:47:51.363Z,27.17
2019-02-26T21:50:22.317Z,28.20
2019-02-26T21:52:59.854Z,23.80
2019-02-26T21:55:22.533Z,23.83
2019-02-26T21:57:54.526Z,25.37
2019-02-26T22:00:29.563Z,28.43
2019-02-26T22:02:59.493Z,21.60
2019-02-26T22:05:30.357Z,25.70
2019-02-26T22:07:59.033Z,22.83
2019-02-26T22:10:31.811Z,27.27
2019-02-26T22:13:00.660Z,32.47
2019-02-26T22:15:32.601Z,27.23
2019-02-26T22:18:02.556Z,27.30
2019-02-26T22:20:36.121Z,28.70
2019-02-26T22:23:01.210Z,26.03
2019-02-26T22:25:31.166Z,24.83
2019-02-26T22:28:02.535Z,29.40
2019-02-26T22:30:32.692Z,29.23
2019-02-26T22:33:01.115Z,24.13
2019-02-26T22:35:29.556Z,26.00
2019-02-26T22:37:58.011Z,27.13
2019-02-26T22:40:28.911Z,27.23
2019-02-26T22:42:56.652Z,29.40
2019-02-26T22:45:27.654Z,26.47
2019-02-26T22:47:55.208Z,29.00
2019-02-26T22:50:24.840Z,31.47
2019-02-26T22:52:53.800Z,27.07
2019-02-26T22:55:22.266Z,25.87
2019-02-26T22:57:50.697Z,24.63
2019-02-26T23:00:50.942Z,31.07
2019-02-26T23:03:19.463Z,26.40
2019-02-26T23:05:48.011Z,27.83
2019-02-26T23:08:17.063Z,31.20
2019-02-26T23:10:45.964Z,32.27
2019-02-26T23:13:16.541Z,26.20
2019-02-26T23:15:45.902Z,26.97
2019-02-26T23:18:15.927Z,24.67
2019-02-26T23:20:44.898Z,26.33
2019-02-26T23:23:13.483Z,27.17
2019-02-26T23:25:42.779Z,27.90
2019-02-26T23:28:12.236Z,31.20
2019-02-26T23:30:41.435Z,27.37
2019-02-26T23:33:09.872Z,26.77
2019-02-26T23:35:38.768Z,32.50
2019-02-26T23:38:08.371Z,25.03
2019-02-26T23:40:37.500Z,30.23
2019-02-26T23:43:06.413Z,24.27
2019-02-26T23:45:34.907Z,23.83
2019-02-26T23:48:07.784Z,24.93
2019-02-26T23:50:33.524Z,26.97
2019-02-26T23:53:01.982Z,24.80
2019-02-26T23:55:30.525Z,25.30
2019-02-26T23:57:58.905Z,21.60
